createdAt,value
2022-09-14T00:01:51.234Z,5.00
2022-09-14T00:04:19.619Z,5.38
2022-09-14T00:06:47.434Z,5.35
2022-09-14T00:09:17.442Z,5.70
2022-09-14T00:11:43.954Z,5.70
2022-09-14T00:14:10.467Z,5.60
2022-09-14T00:16:39.597Z,5.63
2022-09-14T00:19:26.764Z,5.30
2022-09-14T00:21:55.903Z,5.53
2022-09-14T00:24:23.828Z,5.38
2022-09-14T00:26:50.956Z,5.63
2022-09-14T00:29:18.731Z,5.63
2022-09-14T00:31:45.573Z,5.55
2022-09-14T00:34:14.748Z,5.70
2022-09-14T00:36:44.902Z,5.57
2022-09-14T00:39:12.451Z,5.50
2022-09-14T00:41:42.158Z,5.43
2022-09-14T00:44:28.459Z,5.72
2022-09-14T00:46:58.485Z,5.60
2022-09-14T00:49:39.625Z,5.55
2022-09-14T00:52:14.700Z,5.55
2022-09-14T00:54:43.675Z,5.78
2022-09-14T00:57:10.507Z,5.55
2022-09-14T00:59:39.260Z,5.53
2022-09-14T01:02:09.115Z,5.43
2022-09-14T01:04:36.591Z,5.72
2022-09-14T01:07:18.380Z,5.75
2022-09-14T01:10:03.723Z,5.35
2022-09-14T01:12:58.025Z,5.50
2022-09-14T01:15:39.216Z,5.40
2022-09-14T01:18:37.095Z,5.28
2022-09-14T01:21:10.911Z,5.47
2022-09-14T01:23:59.382Z,5.57
2022-09-14T01:26:40.869Z,5.43
2022-09-14T01:29:19.832Z,5.68
2022-09-14T01:32:00.445Z,5.65
2022-09-14T01:34:52.071Z,5.88
2022-09-14T01:37:30.914Z,5.63
2022-09-14T01:40:12.923Z,5.45
2022-09-14T01:42:42.676Z,5.50
2022-09-14T01:45:13.403Z,5.72
2022-09-14T01:47:49.010Z,5.60
2022-09-14T01:50:36.809Z,5.57
2022-09-14T01:53:09.832Z,5.70
2022-09-14T01:55:52.273Z,5.50
2022-09-14T01:58:26.698Z,5.60
2022-09-14T02:00:56.577Z,5.53
2022-09-14T02:03:29.643Z,5.63
2022-09-14T02:06:04.927Z,5.50
2022-09-14T02:08:31.843Z,5.53
2022-09-14T02:10:58.932Z,5.35
2022-09-14T02:13:26.772Z,5.50
2022-09-14T02:15:53.418Z,5.03
2022-09-14T02:18:20.548Z,5.53
2022-09-14T02:20:53.611Z,5.90
2022-09-14T02:23:20.310Z,5.25
2022-09-14T02:25:47.391Z,5.60
2022-09-14T02:28:14.211Z,5.63
2022-09-14T02:31:10.076Z,5.40
2022-09-14T02:33:54.894Z,5.60
2022-09-14T02:36:43.276Z,5.28
2022-09-14T02:39:24.863Z,5.43
2022-09-14T02:42:26.156Z,5.40
2022-09-14T02:45:07.550Z,5.80
2022-09-14T02:47:55.788Z,5.88
2022-09-14T02:50:43.146Z,5.95
2022-09-14T02:53:38.408Z,5.70
2022-09-14T02:56:08.555Z,5.55
2022-09-14T02:58:37.687Z,5.65
2022-09-14T03:01:05.993Z,5.30
2022-09-14T03:03:35.590Z,5.40
2022-09-14T03:06:02.236Z,5.43
2022-09-14T03:08:28.816Z,5.20
2022-09-14T03:10:55.440Z,5.40
2022-09-14T03:13:22.271Z,4.95
2022-09-14T03:15:48.779Z,5.40
2022-09-14T03:18:15.649Z,4.88
2022-09-14T03:20:42.643Z,5.32
2022-09-14T03:23:10.692Z,5.05
2022-09-14T03:25:39.820Z,4.97
2022-09-14T03:28:07.054Z,4.93
2022-09-14T03:30:33.996Z,4.90
2022-09-14T03:33:01.011Z,5.18
2022-09-14T03:35:31.895Z,4.95
2022-09-14T03:37:59.671Z,4.85
2022-09-14T03:40:27.338Z,4.75
2022-09-14T03:42:54.367Z,4.57
2022-09-14T03:45:21.675Z,4.43
2022-09-14T03:47:48.678Z,4.60
2022-09-14T03:50:16.367Z,4.40
2022-09-14T03:52:42.860Z,4.72
2022-09-14T03:55:09.451Z,4.40
2022-09-14T03:57:36.247Z,4.30
2022-09-14T04:00:04.387Z,4.57
2022-09-14T04:02:37.971Z,4.68
2022-09-14T04:05:04.877Z,4.70
2022-09-14T04:07:31.449Z,4.43
2022-09-14T04:09:58.309Z,4.18
2022-09-14T04:12:24.784Z,4.15
2022-09-14T04:14:51.279Z,4.30
2022-09-14T04:17:17.804Z,4.30
2022-09-14T04:19:44.565Z,4.10
2022-09-14T04:22:11.242Z,4.10
2022-09-14T04:24:37.766Z,3.80
2022-09-14T04:27:04.288Z,3.90
2022-09-14T04:29:30.800Z,4.38
2022-09-14T04:31:57.908Z,4.00
2022-09-14T04:34:24.481Z,4.00
2022-09-14T04:36:50.989Z,3.90
2022-09-14T04:39:17.555Z,4.10
2022-09-14T04:41:44.030Z,4.03
2022-09-14T04:44:10.744Z,3.97
2022-09-14T04:46:45.060Z,3.97
2022-09-14T04:49:13.098Z,3.92
2022-09-14T04:51:39.607Z,3.92
2022-09-14T04:54:07.023Z,4.50
2022-09-14T04:56:35.924Z,4.03
2022-09-14T04:59:04.321Z,4.32
2022-09-14T05:01:43.123Z,4.40
2022-09-14T05:04:11.662Z,4.22
2022-09-14T05:06:40.519Z,4.25
2022-09-14T05:09:13.602Z,4.10
2022-09-14T05:11:41.130Z,4.03
2022-09-14T05:14:09.490Z,4.32
2022-09-14T05:16:37.690Z,4.10
2022-09-14T05:19:06.993Z,4.28
2022-09-14T05:21:36.255Z,4.00
2022-09-14T05:24:06.161Z,4.10
2022-09-14T05:26:32.922Z,4.50
2022-09-14T05:29:01.226Z,4.20
2022-09-14T05:31:29.305Z,4.10
2022-09-14T05:33:55.913Z,4.00
2022-09-14T05:36:23.028Z,4.10
2022-09-14T05:38:49.695Z,4.10
2022-09-14T05:41:16.317Z,4.03
2022-09-14T05:43:43.537Z,4.05
2022-09-14T05:46:12.412Z,4.28
2022-09-14T05:48:39.693Z,3.97
2022-09-14T05:51:18.257Z,4.20
2022-09-14T05:53:50.159Z,4.20
2022-09-14T05:56:17.868Z,4.22
2022-09-14T05:58:44.726Z,3.97
2022-09-14T06:01:16.989Z,4.60
2022-09-14T06:03:44.818Z,4.80
2022-09-14T06:06:13.492Z,4.43
2022-09-14T06:08:40.624Z,4.60
2022-09-14T06:11:09.471Z,5.22
2022-09-14T06:13:36.252Z,5.63
2022-09-14T06:16:07.498Z,5.60
2022-09-14T06:18:35.603Z,6.07
2022-09-14T06:21:03.546Z,6.25
2022-09-14T06:23:30.816Z,5.80
2022-09-14T06:25:58.993Z,5.65
2022-09-14T06:28:26.276Z,6.07
2022-09-14T06:30:53.019Z,5.90
2022-09-14T06:33:20.141Z,5.72
2022-09-14T06:35:56.241Z,5.80
2022-09-14T06:38:23.021Z,6.10
2022-09-14T06:40:56.978Z,6.03
2022-09-14T06:43:28.923Z,6.07
2022-09-14T06:46:00.303Z,6.05
2022-09-14T06:48:29.107Z,6.03
2022-09-14T06:50:56.380Z,5.95
2022-09-14T06:53:23.158Z,6.38
2022-09-14T06:55:49.999Z,6.10
2022-09-14T06:58:16.515Z,6.15
2022-09-14T07:00:43.111Z,5.75
2022-09-14T07:03:09.604Z,6.20
2022-09-14T07:05:36.099Z,6.20
2022-09-14T07:08:02.571Z,5.82
2022-09-14T07:10:29.059Z,5.80
2022-09-14T07:12:55.695Z,6.03
2022-09-14T07:15:22.334Z,5.93
2022-09-14T07:17:48.787Z,6.20
2022-09-14T07:20:18.092Z,6.38
2022-09-14T07:22:45.191Z,6.45
2022-09-14T07:25:11.828Z,6.43
2022-09-14T07:27:39.424Z,6.60
2022-09-14T07:30:07.302Z,6.43
2022-09-14T07:32:33.798Z,6.57
2022-09-14T07:35:00.826Z,6.28
2022-09-14T07:37:28.772Z,6.30
2022-09-14T07:39:57.102Z,6.20
2022-09-14T07:42:23.680Z,5.93
2022-09-14T07:44:50.556Z,6.43
2022-09-14T07:47:17.020Z,6.38
2022-09-14T07:49:43.472Z,6.07
2022-09-14T07:52:11.196Z,6.18
2022-09-14T07:54:37.865Z,6.18
2022-09-14T07:57:04.314Z,6.30
2022-09-14T07:59:38.492Z,5.78
2022-09-14T08:02:07.615Z,6.22
2022-09-14T08:04:40.455Z,5.78
2022-09-14T08:07:07.786Z,6.10
2022-09-14T08:09:34.364Z,6.18
2022-09-14T08:12:00.855Z,5.68
2022-09-14T08:14:27.343Z,5.70
2022-09-14T08:16:53.860Z,6.00
2022-09-14T08:19:20.774Z,5.72
2022-09-14T08:21:48.133Z,5.90
2022-09-14T08:24:17.389Z,5.90
2022-09-14T08:26:44.029Z,5.53
2022-09-14T08:29:12.342Z,5.50
2022-09-14T08:31:39.140Z,6.00
2022-09-14T08:34:06.891Z,6.15
2022-09-14T08:36:36.671Z,6.28
2022-09-14T08:39:04.299Z,6.10
2022-09-14T08:41:45.723Z,6.68
2022-09-14T08:44:35.621Z,6.30
2022-09-14T08:47:16.299Z,6.38
2022-09-14T08:49:47.303Z,6.97
2022-09-14T08:52:28.302Z,6.88
2022-09-14T08:54:59.447Z,6.97
2022-09-14T08:57:38.203Z,7.10
2022-09-14T09:00:09.259Z,7.43
2022-09-14T09:03:03.067Z,6.63
2022-09-14T09:05:39.642Z,6.60
2022-09-14T09:08:13.063Z,7.10
2022-09-14T09:10:40.818Z,6.78
2022-09-14T09:13:19.547Z,6.80
2022-09-14T09:16:00.244Z,6.78
2022-09-14T09:18:55.247Z,6.82
2022-09-14T09:21:38.653Z,7.13
2022-09-14T09:24:18.045Z,6.90
2022-09-14T09:26:44.508Z,7.10
2022-09-14T09:29:11.820Z,7.18
2022-09-14T09:31:58.901Z,7.38
2022-09-14T09:34:43.713Z,6.43
2022-09-14T09:37:22.395Z,7.30
2022-09-14T09:39:49.522Z,7.05
2022-09-14T09:42:22.596Z,6.93
2022-09-14T09:45:03.635Z,6.95
2022-09-14T09:47:33.444Z,6.82
2022-09-14T09:50:03.616Z,6.90
2022-09-14T09:52:32.998Z,6.32
2022-09-14T09:55:00.259Z,6.40
2022-09-14T09:57:35.286Z,6.68
2022-09-14T10:00:30.978Z,6.78
2022-09-14T10:02:57.993Z,6.75
2022-09-14T10:05:31.482Z,6.75
2022-09-14T10:08:00.288Z,7.05
2022-09-14T10:10:44.842Z,7.10
2022-09-14T10:13:27.379Z,7.38
2022-09-14T10:15:54.440Z,7.05
2022-09-14T10:18:22.881Z,6.75
2022-09-14T10:20:52.278Z,7.53
2022-09-14T10:23:18.653Z,7.00
2022-09-14T10:25:50.387Z,7.55
2022-09-14T10:31:02.447Z,7.65
2022-09-14T10:33:30.123Z,7.38
2022-09-14T10:35:56.499Z,7.68
2022-09-14T10:38:39.843Z,7.30
2022-09-14T10:41:06.465Z,7.80
2022-09-14T10:44:14.131Z,7.50
2022-09-14T10:46:52.982Z,7.53
2022-09-14T10:49:37.983Z,7.22
2022-09-14T10:52:24.199Z,6.88
2022-09-14T10:55:09.349Z,7.18
2022-09-14T10:57:52.849Z,7.45
2022-09-14T11:00:20.460Z,7.75
2022-09-14T11:03:14.839Z,7.45
2022-09-14T11:06:00.027Z,6.93
2022-09-14T11:08:33.079Z,7.35
2022-09-14T11:11:34.932Z,6.80
2022-09-14T11:14:04.642Z,7.32
2022-09-14T11:16:56.320Z,6.78
2022-09-14T11:20:00.057Z,7.40
2022-09-14T11:23:06.265Z,7.47
2022-09-14T11:26:03.476Z,7.63
2022-09-14T11:29:08.140Z,7.60
2022-09-14T11:31:52.111Z,7.10
2022-09-14T11:34:38.604Z,7.60
2022-09-14T11:37:10.459Z,7.43
2022-09-14T11:40:10.486Z,7.38
2022-09-14T11:42:56.390Z,7.68
2022-09-14T11:45:29.972Z,7.60
2022-09-14T11:48:38.275Z,7.80
2022-09-14T11:51:11.353Z,7.43
2022-09-14T11:53:40.241Z,7.13
2022-09-14T11:56:23.252Z,7.80
2022-09-14T11:58:50.381Z,7.35
2022-09-14T12:01:39.538Z,7.80
2022-09-14T12:04:11.888Z,7.55
2022-09-14T12:06:38.389Z,7.80
2022-09-14T12:09:27.892Z,7.70
2022-09-14T12:11:58.301Z,7.57
2022-09-14T12:14:26.810Z,7.45
2022-09-14T12:17:38.398Z,7.10
2022-09-14T12:20:38.325Z,7.80
2022-09-14T12:23:17.700Z,7.85
2022-09-14T12:26:08.684Z,8.15
2022-09-14T12:28:35.095Z,7.88
2022-09-14T12:31:04.518Z,8.27
2022-09-14T12:33:31.102Z,7.93
2022-09-14T12:36:21.516Z,8.55
2022-09-14T12:38:50.899Z,8.43
2022-09-14T12:41:20.372Z,7.95
2022-09-14T12:43:50.236Z,7.82
2022-09-14T12:46:19.692Z,7.97
2022-09-14T12:48:48.934Z,8.05
2022-09-14T12:51:28.363Z,7.97
2022-09-14T12:54:02.599Z,8.27
2022-09-14T12:56:42.270Z,8.38
2022-09-14T12:59:32.704Z,8.00
2022-09-14T13:02:20.467Z,8.00
2022-09-14T13:04:47.826Z,8.00
2022-09-14T13:07:17.803Z,8.35
2022-09-14T13:09:49.956Z,7.95
2022-09-14T13:12:27.975Z,8.07
2022-09-14T13:15:01.792Z,8.13
2022-09-14T13:17:28.280Z,8.50
2022-09-14T13:19:57.527Z,8.75
2022-09-14T13:22:27.250Z,8.80
2022-09-14T13:24:53.825Z,8.85
2022-09-14T13:27:25.165Z,8.60
2022-09-14T13:30:04.840Z,8.55
2022-09-14T13:32:34.769Z,9.30
2022-09-14T13:35:04.973Z,8.80
2022-09-14T13:37:31.721Z,8.77
2022-09-14T13:39:58.921Z,9.07
2022-09-14T13:42:25.820Z,9.43
2022-09-14T13:44:52.960Z,9.23
2022-09-14T13:47:23.391Z,9.43
2022-09-14T13:49:51.786Z,9.38
2022-09-14T13:52:38.913Z,9.48
2022-09-14T13:55:14.347Z,9.60
2022-09-14T13:58:06.495Z,10.20
2022-09-14T14:00:34.741Z,9.30
2022-09-14T14:03:04.804Z,9.05
2022-09-14T14:05:40.403Z,9.23
2022-09-14T14:08:26.147Z,9.05
2022-09-14T14:10:54.181Z,9.75
2022-09-14T14:13:25.817Z,10.10
2022-09-14T14:18:54.085Z,9.70
2022-09-14T14:21:24.716Z,9.40
2022-09-14T14:24:12.245Z,10.07
2022-09-14T14:26:40.026Z,10.30
2022-09-14T14:29:09.943Z,9.85
2022-09-14T14:31:36.556Z,10.18
2022-09-14T14:34:16.436Z,8.90
2022-09-14T14:36:42.908Z,9.20
2022-09-14T14:39:09.361Z,8.98
2022-09-14T14:41:36.758Z,8.90
2022-09-14T14:44:03.453Z,8.65
2022-09-14T14:46:30.428Z,9.38
2022-09-14T14:48:56.998Z,8.93
2022-09-14T14:51:23.491Z,9.65
2022-09-14T14:53:49.950Z,9.27
2022-09-14T14:56:16.448Z,9.43
2022-09-14T14:58:45.157Z,9.38
2022-09-14T15:01:12.018Z,8.88
2022-09-14T15:03:39.186Z,9.07
2022-09-14T15:06:15.572Z,8.77
2022-09-14T15:08:42.678Z,8.75
2022-09-14T15:11:17.763Z,9.05
2022-09-14T15:13:45.352Z,8.57
2022-09-14T15:16:12.886Z,9.35
2022-09-14T15:18:39.471Z,8.90
2022-09-14T15:21:06.071Z,8.60
2022-09-14T15:23:33.262Z,8.75
2022-09-14T15:25:59.795Z,9.07
2022-09-14T15:28:26.288Z,8.88
2022-09-14T15:30:52.802Z,8.98
2022-09-14T15:33:19.540Z,9.38
2022-09-14T15:35:45.986Z,8.45
2022-09-14T15:38:12.453Z,8.90
2022-09-14T15:40:39.022Z,8.48
2022-09-14T15:43:06.203Z,9.27
2022-09-14T15:45:32.730Z,8.32
2022-09-14T15:47:59.228Z,8.82
2022-09-14T15:50:25.708Z,8.40
2022-09-14T15:52:52.184Z,8.93
2022-09-14T15:55:18.706Z,8.32
2022-09-14T15:57:45.517Z,8.23
2022-09-14T16:00:14.178Z,7.75
2022-09-14T16:02:41.977Z,8.15
2022-09-14T16:05:08.633Z,7.88
2022-09-14T16:07:35.094Z,7.80
2022-09-14T16:10:01.582Z,7.40
2022-09-14T16:12:28.033Z,7.63
2022-09-14T16:14:54.521Z,7.85
2022-09-14T16:17:20.979Z,8.05
2022-09-14T16:19:49.075Z,7.63
2022-09-14T16:22:15.544Z,7.50
2022-09-14T16:24:42.220Z,7.22
2022-09-14T16:27:08.680Z,7.78
2022-09-14T16:29:35.140Z,7.72
2022-09-14T16:32:01.749Z,7.10
2022-09-14T16:34:29.688Z,8.10
2022-09-14T16:36:58.468Z,7.35
2022-09-14T16:39:27.142Z,7.35
2022-09-14T16:41:55.590Z,7.50
2022-09-14T16:44:24.418Z,7.70
2022-09-14T16:46:52.353Z,7.53
2022-09-14T16:49:22.404Z,7.55
2022-09-14T16:51:52.919Z,7.60
2022-09-14T16:54:21.609Z,7.70
2022-09-14T16:56:48.684Z,7.53
2022-09-14T16:59:16.538Z,7.65
2022-09-14T17:01:45.714Z,7.75
2022-09-14T17:04:15.304Z,7.35
2022-09-14T17:06:44.347Z,8.18
2022-09-14T17:09:13.572Z,7.70
2022-09-14T17:11:40.904Z,8.55
2022-09-14T17:14:09.295Z,8.45
2022-09-14T17:16:35.857Z,8.45
2022-09-14T17:19:04.217Z,8.18
2022-09-14T17:21:36.513Z,8.43
2022-09-14T17:24:04.420Z,8.55
2022-09-14T17:26:31.611Z,8.93
2022-09-14T17:28:59.008Z,8.85
2022-09-14T17:31:29.655Z,8.43
2022-09-14T17:33:57.807Z,9.03
2022-09-14T17:36:25.137Z,9.55
2022-09-14T17:38:51.869Z,10.13
2022-09-14T17:41:21.598Z,10.02
2022-09-14T17:43:52.593Z,10.07
2022-09-14T17:46:21.430Z,10.77
2022-09-14T17:48:50.336Z,10.00
2022-09-14T17:51:20.468Z,10.15
2022-09-14T17:53:52.829Z,10.52
2022-09-14T17:56:22.048Z,10.40
2022-09-14T17:58:56.478Z,10.68
2022-09-14T18:01:23.390Z,10.65
2022-09-14T18:03:52.608Z,11.82
2022-09-14T18:06:20.169Z,11.00
2022-09-14T18:08:47.113Z,11.27
2022-09-14T18:11:16.521Z,12.00
2022-09-14T18:13:48.035Z,11.38
2022-09-14T18:16:16.634Z,11.30
2022-09-14T18:18:43.287Z,11.35
2022-09-14T18:21:11.058Z,11.20
2022-09-14T18:23:37.929Z,10.55
2022-09-14T18:26:05.775Z,10.90
2022-09-14T18:28:33.225Z,10.35
2022-09-14T18:31:01.796Z,11.40
2022-09-14T18:33:29.129Z,10.93
2022-09-14T18:35:56.185Z,10.57
2022-09-14T18:38:23.091Z,10.55
2022-09-14T18:40:49.657Z,11.55
2022-09-14T18:43:16.764Z,10.38
2022-09-14T18:45:44.074Z,10.40
2022-09-14T18:48:10.864Z,10.27
2022-09-14T18:50:38.590Z,11.05
2022-09-14T18:53:05.215Z,10.30
2022-09-14T18:55:33.077Z,10.90
2022-09-14T18:58:00.800Z,11.30
2022-09-14T19:00:28.000Z,10.65
2022-09-14T19:02:56.053Z,11.20
2022-09-14T19:05:24.199Z,11.07
2022-09-14T19:07:50.716Z,10.60
2022-09-14T19:10:17.714Z,11.05
2022-09-14T19:12:44.772Z,10.75
2022-09-14T19:15:12.156Z,10.48
2022-09-14T19:17:38.773Z,10.63
2022-09-14T19:20:08.078Z,11.00
2022-09-14T19:22:34.778Z,11.23
2022-09-14T19:25:01.448Z,11.48
2022-09-14T19:27:28.332Z,11.20
2022-09-14T19:29:55.000Z,11.25
2022-09-14T19:32:21.843Z,11.60
2022-09-14T19:34:49.040Z,11.27
2022-09-14T19:37:15.583Z,11.30
2022-09-14T19:39:42.257Z,10.65
2022-09-14T19:42:08.792Z,10.13
2022-09-14T19:44:35.267Z,10.98
2022-09-14T19:47:01.952Z,11.10
2022-09-14T19:49:28.495Z,9.93
2022-09-14T19:51:56.041Z,10.27
2022-09-14T19:54:22.724Z,10.45
2022-09-14T19:56:49.432Z,9.80
2022-09-14T19:59:16.605Z,10.52
2022-09-14T20:01:43.823Z,9.98
2022-09-14T20:04:10.929Z,10.73
2022-09-14T20:06:42.781Z,9.70
2022-09-14T20:09:20.852Z,9.88
2022-09-14T20:11:49.659Z,10.70
2022-09-14T20:14:20.195Z,10.05
2022-09-14T20:16:49.571Z,10.18
2022-09-14T20:19:22.496Z,10.15
2022-09-14T20:21:50.715Z,10.90
2022-09-14T20:24:20.265Z,11.70
2022-09-14T20:26:50.892Z,11.73
2022-09-14T20:29:18.995Z,11.93
2022-09-14T20:31:46.654Z,12.00
2022-09-14T20:34:15.573Z,11.40
2022-09-14T20:36:42.217Z,11.63
2022-09-14T20:39:09.184Z,11.77
2022-09-14T20:41:36.019Z,11.70
2022-09-14T20:44:03.458Z,11.05
2022-09-14T20:46:34.783Z,11.10
2022-09-14T20:49:02.984Z,11.77
2022-09-14T20:51:29.553Z,10.70
2022-09-14T20:53:56.323Z,10.93
2022-09-14T20:56:25.449Z,11.52
2022-09-14T20:58:57.876Z,11.27
2022-09-14T21:01:27.140Z,10.93
2022-09-14T21:03:54.331Z,11.10
2022-09-14T21:06:25.598Z,10.43
2022-09-14T21:08:52.564Z,11.73
2022-09-14T21:11:21.838Z,11.18
2022-09-14T21:13:49.817Z,11.85
2022-09-14T21:16:18.462Z,10.98
2022-09-14T21:18:46.603Z,11.38
2022-09-14T21:21:16.676Z,12.45
2022-09-14T21:23:43.330Z,11.80
2022-09-14T21:26:11.444Z,12.18
2022-09-14T21:28:39.525Z,11.98
2022-09-14T21:31:13.746Z,11.65
2022-09-14T21:33:42.076Z,11.13
2022-09-14T21:36:17.797Z,11.75
2022-09-14T21:38:51.638Z,12.82
2022-09-14T21:41:19.301Z,11.70
2022-09-14T21:43:46.075Z,12.55
2022-09-14T21:46:12.978Z,12.55
2022-09-14T21:48:39.444Z,13.27
2022-09-14T21:51:19.169Z,13.30
2022-09-14T21:53:47.567Z,12.40
2022-09-14T21:56:15.243Z,13.32
2022-09-14T21:58:42.281Z,13.02
2022-09-14T22:01:09.477Z,12.43
2022-09-14T22:03:36.732Z,13.48
2022-09-14T22:06:06.414Z,13.27
2022-09-14T22:08:34.547Z,12.32
2022-09-14T22:11:06.568Z,13.20
2022-09-14T22:13:33.607Z,12.68
2022-09-14T22:16:07.892Z,13.65
2022-09-14T22:18:36.768Z,13.70
2022-09-14T22:21:04.544Z,13.98
2022-09-14T22:23:32.204Z,13.75
2022-09-14T22:25:58.692Z,14.05
2022-09-14T22:28:25.617Z,13.60
2022-09-14T22:30:54.535Z,13.80
2022-09-14T22:33:23.167Z,13.68
2022-09-14T22:35:54.731Z,13.95
2022-09-14T22:38:23.264Z,13.18
2022-09-14T22:41:03.595Z,14.50
2022-09-14T22:43:31.297Z,13.85
2022-09-14T22:45:58.460Z,13.55
2022-09-14T22:48:26.106Z,14.07
2022-09-14T22:50:54.799Z,13.70
2022-09-14T22:53:23.169Z,13.45
2022-09-14T22:55:50.181Z,12.63
2022-09-14T22:58:24.225Z,13.32
2022-09-14T23:00:51.069Z,13.25
2022-09-14T23:03:18.343Z,11.95
2022-09-14T23:05:51.099Z,12.70
2022-09-14T23:08:18.422Z,12.73
2022-09-14T23:10:45.771Z,11.80
2022-09-14T23:13:12.304Z,12.38
2022-09-14T23:15:39.903Z,11.98
2022-09-14T23:18:07.167Z,12.55
2022-09-14T23:20:42.165Z,12.40
2022-09-14T23:23:09.982Z,12.93
2022-09-14T23:25:38.182Z,13.45
2022-09-14T23:28:06.123Z,12.40
2022-09-14T23:30:33.625Z,12.90
2022-09-14T23:33:00.658Z,12.93
2022-09-14T23:35:28.001Z,12.65
2022-09-14T23:37:55.185Z,12.80
2022-09-14T23:40:21.828Z,12.35
2022-09-14T23:42:48.413Z,12.30
2022-09-14T23:45:15.711Z,12.93
2022-09-14T23:47:42.204Z,12.60
2022-09-14T23:50:09.232Z,12.48
2022-09-14T23:52:36.821Z,13.02
2022-09-14T23:55:03.768Z,12.90
2022-09-14T23:57:30.456Z,13.32
2022-09-14T23:59:57.900Z,13.23
